createdAt,value
2022-08-28T00:01:20.929Z,93476.13
2022-08-28T00:16:22.571Z,93480.59
2022-08-28T00:31:28.261Z,93483.53
2022-08-28T00:46:29.886Z,93487.00
2022-08-28T01:01:31.565Z,93488.81
2022-08-28T01:16:34.214Z,93498.47
2022-08-28T01:31:37.876Z,93490.81
2022-08-28T01:46:41.376Z,93489.22
2022-08-28T02:01:43.620Z,93491.53
2022-08-28T02:16:45.198Z,93494.56
2022-08-28T02:31:46.759Z,93497.38
2022-08-28T02:46:48.411Z,93507.56
2022-08-28T03:01:50.518Z,93514.31
2022-08-28T03:16:52.368Z,93511.78
2022-08-28T03:31:53.999Z,93510.66
2022-08-28T03:46:55.555Z,93522.25
2022-08-28T04:01:57.115Z,93534.63
2022-08-28T04:17:01.484Z,93548.50
2022-08-28T04:32:03.578Z,93562.34
2022-08-28T04:47:06.259Z,93559.94
2022-08-28T05:02:07.902Z,93561.47
2022-08-28T05:17:09.524Z,93570.59
2022-08-28T05:32:11.059Z,93579.44
2022-08-28T05:47:13.143Z,93591.44
2022-08-28T06:02:14.716Z,93591.09
2022-08-28T06:17:16.417Z,93589.50
2022-08-28T06:32:25.197Z,93598.72
2022-08-28T06:47:26.753Z,93609.06
2022-08-28T07:02:28.626Z,93611.19
2022-08-28T07:17:30.848Z,93600.47
2022-08-28T07:32:33.642Z,93587.84
2022-08-28T07:47:35.843Z,93599.97
2022-08-28T08:02:37.366Z,93597.13
2022-08-28T08:17:39.445Z,93593.59
2022-08-28T08:32:41.131Z,93594.13
2022-08-28T08:47:51.557Z,93586.78
2022-08-28T09:03:03.404Z,93582.75
2022-08-28T09:18:17.892Z,93582.38
2022-08-28T09:33:28.051Z,93581.91
2022-08-28T09:48:37.861Z,93570.31
2022-08-28T10:03:45.481Z,93557.81
2022-08-28T10:19:02.074Z,93548.66
2022-08-28T10:34:07.133Z,93538.88
2022-08-28T10:49:11.562Z,93537.13
2022-08-28T11:04:24.958Z,93530.69
2022-08-28T11:19:50.294Z,93523.59
2022-08-28T11:35:02.909Z,93510.25
2022-08-28T11:50:12.245Z,93499.41
2022-08-28T12:05:16.489Z,93490.41
2022-08-28T12:20:36.488Z,93478.69
2022-08-28T12:35:38.139Z,93471.75
2022-08-28T12:50:39.815Z,93469.81
2022-08-28T13:05:41.457Z,93463.06
2022-08-28T13:20:42.982Z,93459.53
2022-08-28T13:35:44.938Z,93455.81
2022-08-28T13:50:48.659Z,93442.28
2022-08-28T14:05:50.301Z,93436.88
2022-08-28T14:20:52.185Z,93436.53
2022-08-28T14:35:53.978Z,93432.13
2022-08-28T14:50:55.513Z,93424.69
2022-08-28T15:06:01.368Z,93402.31
2022-08-28T15:21:03.099Z,93413.00
2022-08-28T15:36:05.272Z,93418.94
2022-08-28T15:51:06.786Z,93443.72
2022-08-28T16:06:12.976Z,93435.50
2022-08-28T16:21:14.498Z,93453.88
2022-08-28T16:36:16.381Z,93458.13
2022-08-28T16:51:19.287Z,93456.28
2022-08-28T17:06:23.752Z,93468.34
2022-08-28T17:21:43.634Z,93479.06
2022-08-28T17:36:45.199Z,93505.78
2022-08-28T17:51:46.727Z,93519.81
2022-08-28T18:06:48.368Z,93529.47
2022-08-28T18:21:50.264Z,93540.78
2022-08-28T18:36:52.108Z,93542.03
2022-08-28T18:51:54.397Z,93557.41
2022-08-28T19:06:55.986Z,93575.31
2022-08-28T19:21:57.603Z,93587.34
2022-08-28T19:36:59.575Z,93607.34
2022-08-28T19:52:03.137Z,93614.13
2022-08-28T20:07:04.932Z,93612.25
2022-08-28T20:22:06.492Z,93630.59
2022-08-28T20:37:08.081Z,93638.31
2022-08-28T20:52:09.659Z,93636.88
2022-08-28T21:07:11.538Z,93624.09
2022-08-28T21:22:13.355Z,93632.97
2022-08-28T21:37:17.052Z,93622.66
2022-08-28T21:52:18.944Z,93634.97
2022-08-28T22:16:08.740Z,93629.13
2022-08-28T22:31:10.372Z,93631.22
2022-08-28T22:46:12.578Z,93638.19
2022-08-28T23:01:20.405Z,93641.75
2022-08-28T23:16:24.262Z,93647.66
2022-08-28T23:31:26.165Z,93643.94
2022-08-28T23:46:28.717Z,93659.06
